Arbovale, WV

6:24 PM EST on December 19, 2014 (GMT -0500)
AMS Farm | Change Station
CLOSE
Current Station
Personal Weather Station
Location: Hightown, VA
Elevation: 3940 ft
Nearby Weather Stations

Elev 3940 ft 38.44 °N, 79.68 °W | Updated 4 minutes ago

Partly Cloudy
Partly Cloudy
18.9 °F
Feels Like 19 °F
N
2.2
Wind Variable Wind from NW
Gusts 3.1 mph

Today
High -- | Low -- °F
--% Chance of Precip.
Yesterday
High -- | Low -- °F
Precip. -- in
7:31 AM 5:00 PM
Waning Crescent, 6% visible
Pressure 30.04 in
Visibility 10.0 miles
Clouds Clear
Windchill 19 °F
Dew Point 10 °F
Humidity 69%
Rainfall 0.00 in
Snow Depth Not available.
UV 0 out of 12
Pollen .10 out of 12
Air Quality Not available.
Flu Activity Not available.
METAR KHSP 192315Z AUTO 30010KT 10SM CLR M03/M06 A3004 RMK AO2 T10351064

More Conditions Fewer Conditions

Pressure 30.04 in
Visibility 10.0 miles
Clouds Clear
Windchill 19 °F
Dew Point 10 °F
Humidity 69%
Rainfall 0.00 in
Snow Depth Not available.
UV 0 out of 12
Pollen .10 out of 12
Air Quality Not available.
Flu Activity Not available.
METAR KHSP 192315Z AUTO 30010KT 10SM CLR M03/M06 A3004 RMK AO2 T10351064

More Conditions Fewer Conditions

10-Day Weather Forecast

Almanac

Astronomy

Dec. 19, 2014 Rise Set
Actual Time
Civil Twilight
Nautical Twilight
Astronomical Twilight
Moon
Length of Visible Light
Length of Day
Tomorrow will be .
, % of the Moon is Illuminated

Today's Extremes

State Highs State Lows

Community

WunderPhotos

Upload Photos

1,779,073 photos uploaded!

WunderBlogs® & News

Nearby

Air Quality

  Air Quality AQ Index Pollutant
Not available.

Snow Depth

Station Depth Elevation

Earthquake Activity

City Distance Mag. Time & Date
Minimum magnitude displayed is 2.5.

Coastal Water Temperatures

Place Temperature

Nearby Weather Stations